createdAt,value
2023-03-21T04:05:11.294Z,1.06
2023-03-21T04:06:11.317Z,1.05
2023-03-21T04:07:11.335Z,1.05
2023-03-21T04:08:11.355Z,1.05
2023-03-21T04:09:20.520Z,1.04
2023-03-21T04:11:11.369Z,1.04
2023-03-21T04:12:11.368Z,1.04
2023-03-21T04:13:11.378Z,1.03
2023-03-21T04:14:11.389Z,1.04
2023-03-21T04:15:11.502Z,1.03
2023-03-21T04:16:11.352Z,1.01
2023-03-21T04:17:11.364Z,1.01
2023-03-21T04:18:11.367Z,1.03
2023-03-21T04:19:11.322Z,1.02
2023-03-21T04:20:16.726Z,1.01
2023-03-21T04:22:11.295Z,1.01
2023-03-21T04:23:11.333Z,1.01
2023-03-21T04:24:11.299Z,1.01
2023-03-21T04:25:11.295Z,1.00
2023-03-21T04:26:11.307Z,1.00
2023-03-21T04:27:11.305Z,1.00
2023-03-21T04:28:11.265Z,0.96
2023-03-21T04:29:11.278Z,0.99
2023-03-21T04:37:11.284Z,0.95
2023-03-21T04:38:11.256Z,0.97
2023-03-21T04:39:11.271Z,0.95
2023-03-21T04:40:11.325Z,0.95
2023-03-21T04:41:11.303Z,0.94
2023-03-21T04:42:11.333Z,0.94
2023-03-21T04:43:11.326Z,0.95
2023-03-21T04:44:11.346Z,0.94
2023-03-21T04:51:11.549Z,0.93
2023-03-21T04:52:11.565Z,0.94
2023-03-21T04:53:11.562Z,0.92
2023-03-21T04:54:11.532Z,0.93
2023-03-21T04:55:11.566Z,0.91
2023-03-21T04:56:11.575Z,0.92
2023-03-21T04:57:11.607Z,0.94
2023-03-21T04:58:11.644Z,0.93
2023-03-21T04:59:11.648Z,0.93
2023-03-21T05:00:11.688Z,0.92
2023-03-21T05:01:11.769Z,0.91
2023-03-21T05:02:11.767Z,0.93
2023-03-21T05:03:11.727Z,0.92
2023-03-21T05:04:11.903Z,0.90
2023-03-21T05:05:11.826Z,0.93
2023-03-21T05:06:11.844Z,0.91
2023-03-21T05:07:11.887Z,0.92
2023-03-21T05:08:11.919Z,0.92
2023-03-21T05:13:12.085Z,0.91
2023-03-21T08:30:15.991Z,1.19
2023-03-21T08:31:16.123Z,1.23
2023-03-21T08:32:16.108Z,1.23
2023-03-21T08:33:16.187Z,1.26
2023-03-21T08:34:16.190Z,1.33
2023-03-21T08:35:16.241Z,1.12
2023-03-21T08:36:16.273Z,1.20
2023-03-21T08:37:16.276Z,1.37
2023-03-21T08:38:16.348Z,1.13
2023-03-21T08:39:16.365Z,1.03
2023-03-21T08:40:16.417Z,1.08
2023-03-21T08:41:16.417Z,1.12
2023-03-21T08:42:16.456Z,1.13
2023-03-21T10:09:18.040Z,1.17
2023-03-21T10:22:18.331Z,1.30
2023-03-21T10:30:18.478Z,1.78
2023-03-21T11:11:20.220Z,1.28
2023-03-21T11:44:19.081Z,3.51
2023-03-21T13:44:22.773Z,2.73
2023-03-21T13:56:22.809Z,3.09
2023-03-21T14:01:22.780Z,2.88
2023-03-21T14:02:22.745Z,2.93
2023-03-21T14:03:22.807Z,2.67
2023-03-21T14:04:27.160Z,2.49
2023-03-21T14:06:22.718Z,2.54
2023-03-21T14:07:22.757Z,2.64
2023-03-21T14:08:36.483Z,2.82
2023-03-21T14:10:22.749Z,2.58
2023-03-21T14:11:22.692Z,2.71
2023-03-21T14:12:22.695Z,2.91
2023-03-21T14:14:22.790Z,3.30
2023-03-21T14:15:22.681Z,3.28
2023-03-21T14:16:22.653Z,3.29
2023-03-21T14:17:22.666Z,3.28
2023-03-21T14:18:27.980Z,3.39
2023-03-21T14:21:24.676Z,3.41
2023-03-21T14:22:22.630Z,3.44
2023-03-21T14:23:22.632Z,3.29
2023-03-21T14:24:22.645Z,3.38
2023-03-21T14:25:24.344Z,3.11
2023-03-21T14:26:25.057Z,3.23
2023-03-21T14:27:23.284Z,3.33
2023-03-21T14:28:22.633Z,3.11
2023-03-21T14:29:26.441Z,2.82
2023-03-21T14:30:22.737Z,2.83
2023-03-21T14:31:22.658Z,2.86
2023-03-21T14:32:22.681Z,2.94
2023-03-21T14:33:22.605Z,3.15
2023-03-21T14:34:22.611Z,3.19
2023-03-21T14:35:22.613Z,2.93
2023-03-21T14:36:22.612Z,2.92
2023-03-21T14:37:22.624Z,3.20
2023-03-21T14:38:22.570Z,2.95
2023-03-21T14:39:22.571Z,3.09
2023-03-21T14:40:22.582Z,3.28
2023-03-21T14:41:22.607Z,3.30
2023-03-21T14:42:22.660Z,3.32
2023-03-21T14:43:22.531Z,3.27
2023-03-21T14:44:22.541Z,3.34
2023-03-21T14:45:22.530Z,3.27
2023-03-21T14:46:22.601Z,2.87
2023-03-21T14:47:22.531Z,3.14
2023-03-21T14:48:22.553Z,2.85
2023-03-21T14:49:22.508Z,3.27
2023-03-21T14:50:22.516Z,3.45
2023-03-21T14:51:22.489Z,3.35
2023-03-21T14:52:22.498Z,3.32
2023-03-21T14:53:22.480Z,3.36
2023-03-21T14:54:22.476Z,3.37
2023-03-21T14:55:22.460Z,3.42
2023-03-21T14:56:22.460Z,3.09
2023-03-21T14:57:22.475Z,3.05
2023-03-21T14:58:22.425Z,3.45
2023-03-21T14:59:22.414Z,3.34
2023-03-21T15:00:22.414Z,3.08
2023-03-21T15:01:22.479Z,3.29
2023-03-21T15:02:22.582Z,3.10
2023-03-21T15:03:22.399Z,3.35
2023-03-21T15:04:22.379Z,3.12
2023-03-21T15:05:22.484Z,2.97
2023-03-21T15:06:22.429Z,2.94
2023-03-21T15:07:22.407Z,3.07
2023-03-21T15:08:22.371Z,2.88
2023-03-21T15:09:22.446Z,2.73
2023-03-21T15:10:22.390Z,2.70
2023-03-21T15:11:22.356Z,2.62
2023-03-21T15:12:22.360Z,2.70
2023-03-21T15:13:22.371Z,2.49
2023-03-21T15:14:22.377Z,2.44
2023-03-21T15:15:22.547Z,2.47
2023-03-21T15:16:22.419Z,2.25
2023-03-21T15:17:22.290Z,2.28
2023-03-21T15:18:22.401Z,2.22
2023-03-21T15:19:22.310Z,2.19
2023-03-21T15:20:22.310Z,2.14
2023-03-21T15:21:22.325Z,2.15
2023-03-21T15:22:22.258Z,2.09
2023-03-21T15:23:22.266Z,2.11
2023-03-21T15:24:22.235Z,2.14
2023-03-21T15:25:22.286Z,2.15
2023-03-21T15:26:22.300Z,2.14
2023-03-21T15:27:22.274Z,1.98
2023-03-21T15:28:22.230Z,1.81
2023-03-21T15:29:22.242Z,1.90
2023-03-21T15:30:22.224Z,1.84
2023-03-21T15:31:22.233Z,1.79
2023-03-21T15:32:22.221Z,1.84
2023-03-21T15:33:22.203Z,1.76
2023-03-21T15:34:22.260Z,1.82
2023-03-21T15:35:22.175Z,1.83
2023-03-21T15:36:22.230Z,1.83
2023-03-21T15:37:22.191Z,1.83
2023-03-21T15:38:22.166Z,1.89
2023-03-21T15:39:22.155Z,1.94
2023-03-21T15:40:22.153Z,1.94
2023-03-21T15:41:22.139Z,1.82
2023-03-21T15:42:22.113Z,1.75
2023-03-21T15:43:22.165Z,1.74
2023-03-21T15:44:22.115Z,1.73
2023-03-21T15:45:22.132Z,1.86
2023-03-21T15:46:22.848Z,1.78
2023-03-21T15:47:22.072Z,1.82
2023-03-21T15:48:22.232Z,1.88
2023-03-21T15:49:22.061Z,1.88
2023-03-21T15:50:22.314Z,1.95
2023-03-21T15:51:22.119Z,1.97
2023-03-21T15:52:22.070Z,1.93
2023-03-21T15:53:22.083Z,1.87
2023-03-21T15:54:22.076Z,1.85
2023-03-21T15:55:22.043Z,1.93
2023-03-21T15:56:22.040Z,1.83
2023-03-21T15:57:22.094Z,1.78
2023-03-21T15:58:22.081Z,1.66
2023-03-21T15:59:22.016Z,1.75
2023-03-21T16:00:22.041Z,1.72
2023-03-21T16:01:22.204Z,1.73
2023-03-21T16:03:22.185Z,1.65
2023-03-21T16:04:22.069Z,1.76
2023-03-21T16:05:22.113Z,1.85
2023-03-21T16:06:22.207Z,1.81
2023-03-21T16:07:22.074Z,1.80
2023-03-21T16:08:22.133Z,1.87
2023-03-21T16:09:22.119Z,1.88
2023-03-21T16:10:22.092Z,1.92
2023-03-21T16:11:22.092Z,1.86
2023-03-21T16:12:22.172Z,1.90
2023-03-21T16:13:22.143Z,1.96
2023-03-21T16:14:22.111Z,1.95
2023-03-21T16:15:22.098Z,1.90
2023-03-21T16:16:22.191Z,1.91
2023-03-21T16:17:22.104Z,1.97
2023-03-21T16:18:22.140Z,1.97
2023-03-21T16:19:22.130Z,1.95
2023-03-21T16:20:22.133Z,1.97
2023-03-21T16:21:22.151Z,2.02
2023-03-21T16:22:22.136Z,2.00
2023-03-21T16:23:22.160Z,1.99
2023-03-21T16:24:22.144Z,2.04
2023-03-21T16:25:22.155Z,2.00
2023-03-21T16:26:22.150Z,1.98
2023-03-21T16:27:22.175Z,2.00
2023-03-21T16:28:22.181Z,1.97
2023-03-21T16:29:22.118Z,2.00
2023-03-21T16:30:22.173Z,2.03
2023-03-21T16:31:22.177Z,2.02
2023-03-21T16:32:22.159Z,2.01
2023-03-21T16:33:22.160Z,2.00
2023-03-21T16:34:22.195Z,2.00
2023-03-21T16:35:23.624Z,2.03
2023-03-21T16:36:22.187Z,2.02
2023-03-21T16:37:22.185Z,2.00
2023-03-21T16:38:22.193Z,2.05
2023-03-21T16:39:22.246Z,2.05
2023-03-21T16:40:22.304Z,1.99
2023-03-21T16:41:22.230Z,2.03
2023-03-21T16:42:22.274Z,2.05
2023-03-21T16:43:22.259Z,2.03
2023-03-21T16:44:22.266Z,2.00
2023-03-21T16:45:22.285Z,2.01
2023-03-21T16:46:22.432Z,2.03
2023-03-21T16:47:22.298Z,2.02
2023-03-21T16:48:22.344Z,2.01
2023-03-21T16:49:22.346Z,2.00
2023-03-21T16:50:22.364Z,2.04
2023-03-21T16:51:24.291Z,2.07
2023-03-21T16:52:23.986Z,2.05
2023-03-21T16:53:22.373Z,2.11
2023-03-21T16:54:22.382Z,2.06
2023-03-21T16:55:22.362Z,2.03
2023-03-21T16:56:22.350Z,2.06
2023-03-21T16:57:22.314Z,2.07
2023-03-21T16:58:22.335Z,2.06
2023-03-21T16:59:22.333Z,2.03
2023-03-21T17:00:22.341Z,2.02
2023-03-21T17:01:22.292Z,2.04
2023-03-21T17:02:22.317Z,2.07
2023-03-21T17:03:22.307Z,2.06
2023-03-21T17:04:22.272Z,2.06
2023-03-21T17:05:22.281Z,2.03
2023-03-21T17:06:22.324Z,2.05
2023-03-21T17:07:22.260Z,2.07
2023-03-21T17:08:22.256Z,2.07
2023-03-21T17:09:22.254Z,2.09
2023-03-21T17:10:22.263Z,2.07
2023-03-21T17:11:22.221Z,2.11
2023-03-21T17:12:22.223Z,2.14
2023-03-21T17:13:22.223Z,2.18
2023-03-21T17:14:22.249Z,2.06
2023-03-21T17:15:22.210Z,2.11
2023-03-21T17:16:22.262Z,2.15
2023-03-21T17:17:22.196Z,2.15
2023-03-21T17:18:22.217Z,2.11
2023-03-21T17:19:22.176Z,2.12
2023-03-21T17:20:22.178Z,2.09
2023-03-21T17:21:22.175Z,2.12
2023-03-21T17:22:22.163Z,2.13
2023-03-21T17:23:22.181Z,2.14
2023-03-21T17:24:22.159Z,2.13
2023-03-21T17:25:22.132Z,2.13
2023-03-21T17:26:22.124Z,2.11
2023-03-21T17:27:22.120Z,2.12
2023-03-21T17:28:22.114Z,2.15
2023-03-21T17:29:22.121Z,2.13
2023-03-21T17:30:22.095Z,2.12
2023-03-21T17:31:22.101Z,2.15
2023-03-21T17:32:22.095Z,2.12
2023-03-21T17:33:22.099Z,2.11
2023-03-21T17:34:22.066Z,2.12
2023-03-21T17:35:22.113Z,2.08
2023-03-21T17:36:22.074Z,2.11
2023-03-21T17:37:22.062Z,2.06
2023-03-21T17:38:22.079Z,2.14
2023-03-21T17:39:22.053Z,2.10
2023-03-21T17:40:22.020Z,2.09
2023-03-21T17:41:22.060Z,2.08
2023-03-21T17:42:22.042Z,2.07
2023-03-21T17:43:22.047Z,2.05
2023-03-21T17:44:22.028Z,2.08
2023-03-21T17:45:22.056Z,2.00
2023-03-21T17:46:22.057Z,2.04
2023-03-21T17:47:22.015Z,2.05
2023-03-21T17:48:22.065Z,2.04
2023-03-21T17:49:21.988Z,2.06
2023-03-21T17:50:21.980Z,2.07
2023-03-21T17:51:21.985Z,2.03
2023-03-21T17:52:22.758Z,2.06
2023-03-21T17:53:21.979Z,2.03
2023-03-21T17:54:21.952Z,2.05
2023-03-21T17:55:21.966Z,2.06
2023-03-21T17:56:21.960Z,2.00
2023-03-21T17:57:21.944Z,2.01
2023-03-21T17:58:21.953Z,1.98
2023-03-21T17:59:21.947Z,2.00
2023-03-21T18:00:21.913Z,2.05
2023-03-21T18:01:21.982Z,2.00
2023-03-21T18:02:21.974Z,2.02
2023-03-21T18:03:22.015Z,1.98
2023-03-21T18:04:22.051Z,2.01
2023-03-21T18:05:22.088Z,1.95
2023-03-21T18:06:22.099Z,1.97
2023-03-21T18:07:40.186Z,1.96
2023-03-21T18:08:23.122Z,1.97
2023-03-21T18:09:22.134Z,1.98
2023-03-21T18:10:22.087Z,1.99
2023-03-21T18:11:22.103Z,2.01
2023-03-21T18:12:22.071Z,2.01
2023-03-21T18:13:22.085Z,1.95
2023-03-21T18:14:27.909Z,1.97
2023-03-21T18:15:23.693Z,1.97
2023-03-21T18:16:22.154Z,1.97
2023-03-21T18:17:22.041Z,1.95
2023-03-21T18:18:22.091Z,1.95
2023-03-21T18:19:22.047Z,2.00
2023-03-21T18:20:22.561Z,1.95
2023-03-21T18:21:23.010Z,1.94
2023-03-21T18:22:22.003Z,2.01
2023-03-21T18:23:22.020Z,1.94
2023-03-21T18:24:22.033Z,1.95
2023-03-21T18:25:21.992Z,1.92
2023-03-21T18:26:23.971Z,1.93
2023-03-21T18:27:22.008Z,1.93
2023-03-21T18:28:22.316Z,1.93
2023-03-21T18:30:45.100Z,1.93
2023-03-21T18:31:23.609Z,1.94
2023-03-21T18:32:21.974Z,1.94
2023-03-21T18:33:21.971Z,1.94
2023-03-21T18:34:21.978Z,1.94
2023-03-21T18:35:21.944Z,1.91
2023-03-21T18:36:25.616Z,1.91
2023-03-21T18:37:22.982Z,1.93
2023-03-21T18:38:21.965Z,1.94
2023-03-21T18:39:21.928Z,1.92
2023-03-21T18:40:21.904Z,1.92
2023-03-21T18:41:21.900Z,1.94
2023-03-21T18:42:23.314Z,1.95
2023-03-21T18:44:24.579Z,1.93
2023-03-21T18:45:21.864Z,1.94
2023-03-21T18:46:21.887Z,1.93
2023-03-21T18:47:21.879Z,1.88
2023-03-21T18:48:21.918Z,1.89
2023-03-21T18:50:05.438Z,1.88
2023-03-21T18:50:22.854Z,1.88
2023-03-21T18:51:21.874Z,1.89
2023-03-21T18:52:21.823Z,1.89
2023-03-21T18:53:21.850Z,1.90
2023-03-21T18:54:21.840Z,1.89
2023-03-21T18:55:30.721Z,1.89
2023-03-21T18:57:13.083Z,1.90
2023-03-21T18:57:39.097Z,1.90
2023-03-21T18:58:22.783Z,1.90
2023-03-21T18:59:21.798Z,1.92
2023-03-21T19:00:21.857Z,1.94
2023-03-21T19:01:21.922Z,1.92
2023-03-21T19:02:21.774Z,1.90
2023-03-21T19:03:34.181Z,1.89
2023-03-21T19:04:29.339Z,1.89
2023-03-21T19:05:22.824Z,1.90
2023-03-21T19:06:21.746Z,1.90
2023-03-21T19:07:21.722Z,1.92
2023-03-21T19:08:21.747Z,1.90
2023-03-21T19:09:29.345Z,1.94
2023-03-21T19:10:22.898Z,1.89
2023-03-21T19:11:22.368Z,1.90
2023-03-21T19:12:21.712Z,1.91
2023-03-21T19:13:21.952Z,1.93
2023-03-21T19:14:21.700Z,1.87
2023-03-21T19:15:21.803Z,1.89
2023-03-21T19:16:26.483Z,1.87
2023-03-21T19:18:26.113Z,1.87
2023-03-21T19:18:41.556Z,1.87
2023-03-21T19:19:22.692Z,1.88
2023-03-21T19:20:21.650Z,1.89
2023-03-21T19:21:21.640Z,1.90
2023-03-21T19:22:21.649Z,1.91
2023-03-21T19:23:21.663Z,1.93
2023-03-21T19:24:27.479Z,1.91
2023-03-21T19:25:22.639Z,1.92
2023-03-21T19:26:21.614Z,1.91
2023-03-21T19:27:21.610Z,1.89
2023-03-21T19:28:21.591Z,1.89
2023-03-21T19:29:21.593Z,1.85
2023-03-21T19:30:21.599Z,1.89
2023-03-21T19:31:21.581Z,1.86
2023-03-21T19:32:21.574Z,1.86
2023-03-21T19:33:21.585Z,1.86
2023-03-21T19:34:21.559Z,1.89
2023-03-21T19:35:21.836Z,1.81
2023-03-21T19:36:22.880Z,1.83
2023-03-21T19:37:21.536Z,1.82
2023-03-21T19:38:21.576Z,1.77
2023-03-21T19:39:21.686Z,1.80
2023-03-21T19:40:21.676Z,1.83
2023-03-21T19:41:21.718Z,1.82
2023-03-21T19:42:21.952Z,1.82
2023-03-21T19:43:33.127Z,1.80
2023-03-21T19:44:22.783Z,1.81
2023-03-21T19:45:21.784Z,1.81
2023-03-21T19:46:21.794Z,1.81
2023-03-21T19:47:22.297Z,1.83
2023-03-21T19:48:23.438Z,1.83
2023-03-21T19:49:22.243Z,1.79
2023-03-21T19:51:30.808Z,1.82
2023-03-21T19:52:22.738Z,1.82
2023-03-21T19:53:21.731Z,1.83
2023-03-21T19:54:21.682Z,1.84
2023-03-21T19:55:21.704Z,1.82
2023-03-21T19:56:24.605Z,1.84
2023-03-21T19:57:22.691Z,1.82
2023-03-21T19:58:22.804Z,1.83
2023-03-21T19:59:21.694Z,1.83
2023-03-21T20:00:21.689Z,1.82
2023-03-21T20:01:21.733Z,1.80
2023-03-21T20:02:34.925Z,1.81
2023-03-21T20:03:22.697Z,1.81
2023-03-21T20:04:21.653Z,1.81
2023-03-21T20:05:21.613Z,1.80
2023-03-21T20:06:21.600Z,1.79
2023-03-21T20:07:21.617Z,1.77
2023-03-21T20:08:21.971Z,1.74
2023-03-21T20:10:22.580Z,1.78
2023-03-21T20:11:21.591Z,1.76
2023-03-21T20:12:21.580Z,1.76
2023-03-21T20:13:21.573Z,1.75
2023-03-21T20:14:21.562Z,1.76
2023-03-21T20:15:22.977Z,1.74
2023-03-21T20:16:21.656Z,1.81
2023-03-21T20:17:21.661Z,1.80
2023-03-21T20:18:21.560Z,1.77
2023-03-21T20:19:21.550Z,1.76
2023-03-21T20:20:21.540Z,1.75
2023-03-21T20:21:25.587Z,1.77
2023-03-21T20:22:31.161Z,1.77
2023-03-21T20:23:22.511Z,1.77
2023-03-21T20:24:21.495Z,1.77
2023-03-21T20:25:21.472Z,1.77
2023-03-21T20:26:21.469Z,1.74
2023-03-21T20:27:21.493Z,1.78
2023-03-21T20:28:25.784Z,1.75
2023-03-21T20:30:22.462Z,1.76
2023-03-21T20:31:21.455Z,1.77
2023-03-21T20:32:21.477Z,1.77
2023-03-21T20:33:21.439Z,1.77
2023-03-21T20:34:21.445Z,1.74
2023-03-21T20:35:46.000Z,1.77
2023-03-21T20:36:39.750Z,1.77
2023-03-21T20:37:22.465Z,1.77
2023-03-21T20:38:21.416Z,1.79
2023-03-21T20:39:21.380Z,1.77
2023-03-21T20:40:21.444Z,1.77
2023-03-21T20:41:21.377Z,1.75
2023-03-21T20:42:21.387Z,1.74
2023-03-21T20:44:08.825Z,1.74
2023-03-21T20:45:22.325Z,1.75
2023-03-21T20:46:21.361Z,1.76
2023-03-21T20:47:21.358Z,1.75
2023-03-21T20:48:21.388Z,1.74
2023-03-21T20:49:21.317Z,1.70
2023-03-21T20:50:22.231Z,1.71
2023-03-21T20:53:22.300Z,1.74
2023-03-21T20:54:21.313Z,1.75
2023-03-21T20:55:21.305Z,1.74
2023-03-21T20:56:21.291Z,1.71
2023-03-21T20:57:21.279Z,1.69
2023-03-21T20:58:51.649Z,1.70
2023-03-21T20:59:27.372Z,1.70
2023-03-21T21:00:22.374Z,1.70
2023-03-21T21:01:21.266Z,1.71
2023-03-21T21:02:21.256Z,1.72
2023-03-21T21:03:21.244Z,1.70
2023-03-21T21:04:21.233Z,1.69
2023-03-21T21:05:28.100Z,1.69
2023-03-21T21:06:22.248Z,1.69
2023-03-21T21:07:21.294Z,1.70
2023-03-21T21:08:21.213Z,1.69
2023-03-21T21:09:21.183Z,1.69
2023-03-21T21:10:22.297Z,1.67
2023-03-21T21:12:05.013Z,1.70
2023-03-21T21:12:22.208Z,1.70
2023-03-21T21:13:21.194Z,1.70
2023-03-21T21:14:21.159Z,1.66
2023-03-21T21:15:21.180Z,1.64
2023-03-21T21:16:21.191Z,1.61
2023-03-21T21:17:46.689Z,1.65
2023-03-21T21:18:22.173Z,1.65
2023-03-21T21:19:21.124Z,1.65
2023-03-21T21:20:21.142Z,1.63
2023-03-21T21:21:21.130Z,1.65
2023-03-21T21:22:21.131Z,1.62
2023-03-21T21:23:21.101Z,1.61
2023-03-21T21:24:21.118Z,1.60
2023-03-21T21:25:21.129Z,1.61
2023-03-21T21:26:21.106Z,1.63
2023-03-21T21:27:21.106Z,1.58
2023-03-21T21:28:21.129Z,1.56
2023-03-21T21:29:21.193Z,1.60
2023-03-21T21:30:21.239Z,1.61
2023-03-21T21:31:21.345Z,1.60
2023-03-21T21:32:21.389Z,1.56
2023-03-21T21:33:21.432Z,1.57
2023-03-21T21:34:21.495Z,1.60
2023-03-21T21:35:21.582Z,1.58
2023-03-21T21:36:21.632Z,1.59
2023-03-21T21:37:21.663Z,1.59
2023-03-21T21:38:21.755Z,1.58
2023-03-21T21:39:21.806Z,1.59
2023-03-21T21:40:21.874Z,1.55
2023-03-21T21:41:21.951Z,1.57
2023-03-21T21:42:22.007Z,1.58
2023-03-21T21:43:22.066Z,1.56
2023-03-21T21:44:22.151Z,1.53
2023-03-21T21:45:22.182Z,1.54
2023-03-21T21:46:22.298Z,1.51
2023-03-21T21:47:22.314Z,1.50
2023-03-21T21:48:22.410Z,1.53
2023-03-21T21:49:22.408Z,1.53
2023-03-21T21:50:22.614Z,1.52
2023-03-21T21:51:22.558Z,1.52
2023-03-21T21:52:22.646Z,1.55
2023-03-21T21:53:22.695Z,1.56
2023-03-21T21:54:22.730Z,1.51
2023-03-21T21:55:22.796Z,1.52
2023-03-21T21:56:22.881Z,1.53
2023-03-21T21:57:22.961Z,1.52
2023-03-21T21:58:22.962Z,1.51
2023-03-21T21:59:23.026Z,1.49
2023-03-21T22:00:23.101Z,1.48
2023-03-21T22:01:23.186Z,1.49
2023-03-21T22:02:23.211Z,1.50
2023-03-21T22:03:23.400Z,1.50
2023-03-21T22:04:23.359Z,1.49
2023-03-21T22:05:23.425Z,1.49
2023-03-21T22:20:24.316Z,1.47
2023-03-21T22:21:24.362Z,1.46
2023-03-21T22:22:24.445Z,1.46
2023-03-21T22:23:24.482Z,1.45
2023-03-21T22:24:24.596Z,1.46
2023-03-21T22:25:24.653Z,1.45
2023-03-21T22:26:24.732Z,1.43
2023-03-21T22:27:24.757Z,1.43
2023-03-21T22:28:24.835Z,1.43
2023-03-21T22:29:24.867Z,1.44
2023-03-21T22:30:24.922Z,1.44
2023-03-21T22:31:24.994Z,1.46
2023-03-21T22:32:25.061Z,1.43
2023-03-21T22:33:25.154Z,1.44
2023-03-21T22:34:25.203Z,1.43
2023-03-21T22:35:25.326Z,1.44
2023-03-21T22:36:25.289Z,1.47
2023-03-21T22:37:25.377Z,1.43
2023-03-21T22:38:25.445Z,1.43
2023-03-21T22:39:25.523Z,1.43
2023-03-21T22:40:25.561Z,1.44
2023-03-21T22:41:25.661Z,1.41
2023-03-21T22:42:25.697Z,1.40
2023-03-21T22:43:25.771Z,1.39
2023-03-21T22:44:25.860Z,1.40
2023-03-21T22:45:25.883Z,1.40
2023-03-21T22:46:26.012Z,1.41
2023-03-21T22:47:25.985Z,1.39
2023-03-21T22:48:26.136Z,1.42
2023-03-21T22:49:26.137Z,1.41
2023-03-21T22:50:26.176Z,1.42
2023-03-21T22:51:26.280Z,1.41
2023-03-21T22:52:26.309Z,1.40
2023-03-21T22:53:26.394Z,1.40
2023-03-21T22:54:26.423Z,1.40
2023-03-21T22:55:26.512Z,1.41
2023-03-21T22:56:26.559Z,1.39
2023-03-21T22:57:26.630Z,1.38
2023-03-21T22:58:26.690Z,1.39
2023-03-21T22:59:26.781Z,1.36
2023-03-21T23:00:26.877Z,1.39
2023-03-21T23:01:26.949Z,1.39
2023-03-21T23:02:26.948Z,1.38
2023-03-21T23:03:27.002Z,1.39
2023-03-21T23:04:27.140Z,1.37
2023-03-21T23:05:27.154Z,1.38
2023-03-21T23:06:27.175Z,1.36
2023-03-21T23:07:27.274Z,1.39
2023-03-21T23:08:27.324Z,1.41
2023-03-21T23:09:27.391Z,1.41
2023-03-21T23:10:27.436Z,1.38
2023-03-21T23:11:27.483Z,1.39
2023-03-21T23:12:27.560Z,1.41
2023-03-21T23:13:27.624Z,1.37
2023-03-21T23:14:27.686Z,1.36
2023-03-21T23:15:27.773Z,1.34
2023-03-21T23:16:27.833Z,1.39
2023-03-21T23:17:27.866Z,1.35
2023-03-21T23:18:27.900Z,1.34
2023-03-21T23:19:27.969Z,1.36
2023-03-21T23:20:28.085Z,1.36
2023-03-21T23:21:28.103Z,1.37
2023-03-21T23:22:28.171Z,1.37
2023-03-21T23:23:28.225Z,1.37
2023-03-21T23:24:28.300Z,1.34
2023-03-21T23:25:28.355Z,1.36
2023-03-21T23:26:28.470Z,1.34
2023-03-21T23:27:28.512Z,1.35
2023-03-21T23:28:28.550Z,1.34
2023-03-21T23:29:28.604Z,1.34
2023-03-21T23:30:28.681Z,1.35
2023-03-21T23:31:28.802Z,1.34
2023-03-21T23:32:28.815Z,1.31
2023-03-21T23:33:28.867Z,1.31
2023-03-21T23:34:28.910Z,1.31
2023-03-21T23:35:29.061Z,1.31
2023-03-21T23:36:29.034Z,1.30
2023-03-21T23:37:29.098Z,1.31
2023-03-21T23:38:29.178Z,1.31
2023-03-21T23:39:29.242Z,1.32
2023-03-21T23:40:29.322Z,1.33
2023-03-21T23:41:29.354Z,1.32
2023-03-21T23:42:29.427Z,1.31
2023-03-21T23:43:29.463Z,1.32
2023-03-21T23:44:29.553Z,1.31
2023-03-21T23:45:29.582Z,1.28
2023-03-21T23:46:29.718Z,1.29
2023-03-21T23:47:29.712Z,1.28
2023-03-21T23:48:29.811Z,1.31
2023-03-21T23:49:29.906Z,1.30
2023-03-21T23:50:33.457Z,1.30
2023-03-21T23:51:34.600Z,1.30
2023-03-21T23:52:29.895Z,1.30
2023-03-21T23:53:29.901Z,1.31
2023-03-21T23:54:29.884Z,1.31
2023-03-21T23:55:29.879Z,1.28
2023-03-21T23:56:29.891Z,1.29
2023-03-21T23:57:29.896Z,1.31
2023-03-21T23:58:29.845Z,1.30
2023-03-21T23:59:29.858Z,1.27
